Data for 07/03/2005

Time Sea-Level Adjusted Pressure Absolute Pressure Temperature Relative Humidity Dew Point   
(mb) (inHg) (mb) (inHg) (C) (F) (%) (C) (F)
00:05 1017 30.03 846 24.98 14.3 57.7 41 1.2 34.1
00:10 1017 30.03 846 24.98 14.1 57.3 45 2.3 36.1
00:15 1017 30.03 846 24.98 12.6 54.6 51 2.8 37.1
00:20 1017 30.03 846 24.98 11.9 53.4 50 1.8 35.3
00:25 1017 30.03 846 24.98 12 53.6 49 1.6 34.8
00:30 1017 30.03 846 24.98 12.1 53.8 48 1.5 34.7
00:35 1017 30.03 847 25.01 12.3 54.2 45 0.8 33.5
00:40 1017 30.03 847 25.01 12.7 54.9 44 0.9 33.6
00:45 1017 30.03 847 25.01 12.8 55.1 44 0.8 33.5
00:50 1017 30.03 847 25.01 13 55.4 42 0.6 33.1
00:55 1017 30.03 847 25.01 13.1 55.5 43 0.8 33.4
01:00 1018 30.06 847 25.01 13.1 55.5 42 0.6 33
01:05 1018 30.06 847 25.01 13 55.5 41 0.2 32.4
01:10 1018 30.06 847 25.01 13.1 55.7 41 0.3 32.6
01:15 1018 30.06 847 25.01 13.1 55.6 42 0.6 33
01:20 1018 30.06 847 25.01 13 55.4 42 0.6 33
01:25 1018 30.06 847 25.01 13 55.4 42 0.4 32.7
01:30 1018 30.06 847 25.01 13.3 55.9 41 0.5 33
01:35 1018 30.06 847 25.01 12.9 55.1 45 1.4 34.4
01:40 1018 30.06 847 25.01 12.4 54.2 45 0.9 33.7
01:45 1018 30.06 847 25.01 12.2 54 47 1.4 34.5
01:50 1018 30.06 847 25.01 11.3 52.4 54 2.4 36.3
01:55 1018 30.06 847 25.01 10.4 50.7 56 2 35.6
02:00 1018 30.06 847 25.01 9.9 49.8 58 2.2 35.9
02:05 1018 30.06 847 25.01 9.4 48.9 60 2.1 35.8
02:10 1018 30.06 847 25.01 9.7 49.5 56 1.3 34.4
02:15 1018 30.06 847 25.01 10 49.9 58 2 35.6
02:20 1018 30.06 847 25.01 9.5 49 61 2.4 36.3
02:25 1018 30.06 847 25.01 9.2 48.6 61 2.1 35.7
02:30 1018 30.06 847 25.01 9.1 48.4 59 1.5 34.7
02:35 1018 30.06 847 25.01 9.4 48.8 60 2 35.6
02:40 1018 30.06 847 25.01 9.3 48.7 58 1.4 34.5
02:45 1018 30.06 847 25.01 9.7 49.4 55 1.2 34.1
02:50 1018 30.06 847 25.01 9.9 49.8 55 1.3 34.3
02:55 1018 30.06 847 25.01 10 49.9 54 1.2 34.1
03:00 1018 30.06 847 25.01 10 50 55 1.4 34.6
03:05 1018 30.06 847 25.01 9.9 49.9 54 1.2 34.1
03:10 1018 30.06 847 25.01 9.9 49.8 54 1.1 34.1
03:15 1018 30.06 847 25.01 9.7 49.4 56 1.3 34.4
03:20 1018 30.06 847 25.01 9.6 49.2 54 0.8 33.5
03:25 1018 30.06 847 25.01 9.8 49.7 52 0.6 33.1
03:30 1018 30.06 847 25.01 10.1 50.3 51 0.5 32.9
03:35 1018 30.06 847 25.01 10.4 50.8 50 0.4 32.7
03:40 1018 30.06 847 25.01 10.5 50.9 50 0.5 32.9
03:45 1018 30.06 847 25.01 10.4 50.7 50 0.6 33.1
03:50 1018 30.06 847 25.01 10.2 50.4 51 0.7 33.3
03:55 1018 30.06 847 25.01 9.9 49.9 53 0.9 33.7
04:00 1018 30.06 847 25.01 9.8 49.6 53 0.8 33.4
04:05 1018 30.06 847 25.01 9.8 49.6 54 0.9 33.7
04:10 1018 30.06 847 25.01 9.6 49.3 54 0.7 33.2
04:15 1018 30.06 847 25.01 9.8 49.6 53 0.6 33.2
04:20 1018 30.06 847 25.01 9.7 49.5 54 0.8 33.5
04:25 1018 30.06 848 25.04 9.7 49.4 52 0.5 32.8
04:30 1018 30.06 848 25.04 9.9 49.7 51 0.3 32.6
04:35 1018 30.06 848 25.04 9.9 49.8 52 0.6 33
04:40 1018 30.06 848 25.04 9.8 49.6 52 0.5 32.9
04:45 1018 30.06 848 25.04 9.7 49.4 53 0.6 33.1
04:50 1018 30.06 848 25.04 9.4 49 54 0.7 33.2
04:55 1019 30.09 848 25.04 9.1 48.5 56 0.8 33.4
05:00 1019 30.09 848 25.04 8.8 47.8 58 0.9 33.6
05:05 1019 30.09 848 25.04 8.5 47.2 59 1 33.8
05:10 1019 30.09 848 25.04 8.2 46.7 60 1 33.8
05:15 1019 30.09 848 25.04 8.2 46.7 59 0.7 33.2
05:20 1019 30.09 848 25.04 8.3 47 60 1 33.8
05:25 1019 30.09 848 25.04 8.2 46.8 60 0.9 33.7
05:30 1019 30.09 848 25.04 8.1 46.5 62 1.2 34.1
05:35 1019 30.09 848 25.04 7.7 45.8 64 1.3 34.4
05:40 1019 30.09 848 25.04 7.2 45 66 1.4 34.4
05:45 1019 30.09 848 25.04 7.2 45 65 1.2 34.2
05:50 1019 30.09 848 25.04 7.4 45.2 65 1.3 34.3
05:55 1019 30.09 848 25.04 7.3 45.2 64 1.1 34
06:00 1019 30.09 848 25.04 7.3 45.1 65 1.2 34.1
06:05 1019 30.09 848 25.04 7.5 45.4 66 1.5 34.6
06:10 1019 30.09 848 25.04 7.1 44.7 67 1.4 34.5
06:15 1019 30.09 848 25.04 7.3 45.1 65 1.2 34.2
06:20 1019 30.09 848 25.04 7.7 45.8 64 1.4 34.5
06:25 1019 30.09 848 25.04 7.4 45.4 66 1.5 34.7
06:30 1019 30.09 848 25.04 7.5 45.5 64 1.2 34.1
06:35 1019 30.09 848 25.04 8 46.3 64 1.6 34.8
06:40 1019 30.09 848 25.04 8.1 46.6 64 1.8 35.3
06:45 1019 30.09 848 25.04 8.1 46.7 63 1.6 34.9
06:50 1019 30.09 849 25.07 8.7 47.6 61 1.7 35
06:55 1019 30.09 849 25.07 8.9 48.1 61 1.9 35.4
07:00 1019 30.09 849 25.07 8.9 48 62 2.1 35.8
07:05 1019 30.09 849 25.07 8.8 47.8 62 2 35.7
07:10 1019 30.09 849 25.07 9.2 48.6 60 1.9 35.4
07:15 1019 30.09 849 25.07 10 49.9 59 2.4 36.4
07:20 1019 30.09 849 25.07 10.1 50.2 59 2.4 36.3
07:25 1019 30.09 849 25.07 10.3 50.5 58 2.5 36.5
07:30 1019 30.09 849 25.07 10.9 51.7 56 2.5 36.4
07:35 1019 30.09 849 25.07 11.2 52.2 54 2.2 35.9
07:40 1019 30.09 849 25.07 11.7 53 53 2.4 36.4
07:45 1019 30.09 849 25.07 12.2 54 50 2.1 35.7
07:50 1019 30.09 849 25.07 12.7 54.8 49 2.3 36.2
07:55 1019 30.09 849 25.07 12.5 54.4 51 2.6 36.7
08:00 1019 30.09 849 25.07 12.4 54.2 50 2.4 36.3
08:05 1020 30.12 849 25.07 13.1 55.6 49 2.6 36.7
08:10 1020 30.12 849 25.07 13.4 56.2 47 2.5 36.5
08:15 1020 30.12 849 25.07 13.8 56.8 43 1.4 34.6
08:20 1020 30.12 849 25.07 13.9 57.1 40 0.6 33
08:25 1020 30.12 849 25.07 13.5 56.4 40 0.1 32.2
08:30 1020 30.12 849 25.07 13.9 57 40 0.5 33
08:35 1020 30.12 849 25.07 14 57.2 37 -0.5 31.1
08:40 1020 30.12 849 25.07 13.9 57.1 39 0.3 32.5
08:45 1020 30.12 849 25.07 14.1 57.3 39 0.5 32.9
08:50 1020 30.12 849 25.07 14.3 57.8 38 0.3 32.6
08:55 1020 30.12 849 25.07 15 59.1 34 -0.6 31
09:00 1020 30.12 849 25.07 14.7 58.4 35 -0.3 31.4
09:05 1020 30.12 849 25.07 15.2 59.3 35 0.1 32.1
09:10 1020 30.12 849 25.07 15.7 60.3 34 0.1 32.1
09:15 1020 30.12 849 25.07 15.9 60.7 33 -0.4 31.2
09:20 1020 30.12 849 25.07 16 60.8 33 -0.3 31.5
09:25 1020 30.12 849 25.07 16.2 61.1 33 0 32.1
09:30 1020 30.12 849 25.07 16.2 61.1 33 0.1 32.1
09:35 1020 30.12 849 25.07 16.1 60.9 33 -0.1 31.8
09:40 1020 30.12 849 25.07 16.3 61.3 33 0.2 32.4
09:45 1020 30.12 849 25.07 16.8 62.3 32 0.2 32.4
09:50 1020 30.12 849 25.07 17 62.6 31 0 32.1
09:55 1020 30.12 849 25.07 16.7 62 32 0.1 32.2
10:00 1020 30.12 849 25.07 16.5 61.7 32 -0.2 31.7
10:05 1020 30.12 849 25.07 17 62.6 30 -0.4 31.3
10:10 1020 30.12 849 25.07 17.3 63.1 30 -0.3 31.5
10:15 1020 30.12 849 25.07 17.5 63.5 30 0 32
10:20 1020 30.12 849 25.07 17.5 63.4 31 0.1 32.1
10:25 1020 30.12 849 25.07 17.4 63.3 32 0.6 33.1
10:30 1020 30.12 849 25.07 17.4 63.3 30 -0.2 31.7
10:35 1020 30.12 849 25.07 17.7 63.8 28 -0.8 30.6
10:40 1020 30.12 849 25.07 17 62.7 31 -0.1 31.8
10:45 1020 30.12 849 25.07 16.6 62 31 -0.4 31.3
10:50 1020 30.12 849 25.07 17.2 62.9 31 0.2 32.4
10:55 1020 30.12 849 25.07 17.6 63.7 31 0.3 32.6
11:00 1020 30.12 849 25.07 17.5 63.5 29 -0.8 30.6
11:05 1020 30.12 849 25.07 17.2 63 30 -0.5 31.2
11:10 1020 30.12 849 25.07 16.7 62 31 -0.4 31.2
11:15 1020 30.12 849 25.07 17.3 63.1 31 0.1 32.2
11:20 1020 30.12 849 25.07 18 64.4 30 0.1 32.2
11:25 1020 30.12 849 25.07 18.3 64.9 29 -0.1 31.9
11:30 1020 30.12 849 25.07 17.9 64.2 30 0.3 32.6
11:35 1020 30.12 849 25.07 17.7 63.8 30 0 32
11:40 1020 30.12 849 25.07 17.5 63.5 30 -0.2 31.6
11:45 1020 30.12 849 25.07 18.8 65.8 28 -0.1 31.8
11:50 1020 30.12 849 25.07 18.9 65.9 28 0.3 32.5
11:55 1020 30.12 849 25.07 19.1 66.3 27 -0.5 31.2
12:00 1020 30.12 849 25.07 18.8 65.9 28 -0.1 31.7
12:05 1020 30.12 849 25.07 18.9 66.1 27 -0.1 31.8
12:10 1020 30.12 849 25.07 18.8 65.8 28 -0 32
12:15 1020 30.12 849 25.07 18.9 65.9 28 -0.1 31.9
12:20 1020 30.12 849 25.07 19.1 66.3 26 -0.6 30.8
12:25 1019 30.09 849 25.07 18.2 64.8 28 -0.7 30.8
12:30 1019 30.09 849 25.07 19 66.2 27 -0.4 31.2
12:35 1019 30.09 849 25.07 19.8 67.6 25 -0.4 31.2
12:40 1019 30.09 849 25.07 19.6 67.3 25 -0.9 30.4
12:45 1019 30.09 849 25.07 19.7 67.5 24 -1 30.1
12:50 1019 30.09 849 25.07 19.1 66.4 26 -0.9 30.3
12:55 1019 30.09 849 25.07 19.7 67.4 24 -1.2 29.8
13:00 1019 30.09 849 25.07 19.8 67.6 25 -0.5 31
13:05 1019 30.09 848 25.04 19.7 67.4 26 0.1 32.1
13:10 1019 30.09 848 25.04 19.7 67.4 26 -0.4 31.3
13:15 1019 30.09 848 25.04 20.3 68.5 27 0.7 33.3
13:20 1019 30.09 848 25.04 20.2 68.4 26 0.1 32.1
13:25 1019 30.09 848 25.04 20.1 68.3 27 0.5 32.9
13:30 1019 30.09 848 25.04 20.4 68.8 25 -0.2 31.6
13:35 1019 30.09 848 25.04 20.6 69.1 23 -1.1 30
13:40 1019 30.09 848 25.04 20.7 69.2 23 -1.1 30.1
13:45 1019 30.09 848 25.04 20.8 69.4 24 -0.4 31.2
13:50 1019 30.09 848 25.04 21.1 70 24 0.2 32.3
13:55 1019 30.09 848 25.04 20.1 68.2 27 0.7 33.2
14:00 1019 30.09 848 25.04 20.1 68.2 24 -0.8 30.6
14:05 1019 30.09 848 25.04 20.8 69.4 26 0.5 32.9
14:10 1019 30.09 848 25.04 20.6 69 24 -0.5 31.1
14:15 1019 30.09 848 25.04 20.9 69.6 23 -0.7 30.7
14:20 1019 30.09 848 25.04 21.6 70.8 23 -0 31.9
14:25 1019 30.09 848 25.04 21.8 71.2 23 0.1 32.2
14:30 1019 30.09 848 25.04 21.3 70.4 26 1.1 33.9
14:35 1019 30.09 848 25.04 21.5 70.6 24 0.4 32.8
14:40 1019 30.09 848 25.04 21.3 70.3 25 0.6 33
14:45 1019 30.09 848 25.04 21.6 70.9 24 0.5 32.8
14:50 1019 30.09 848 25.04 21.8 71.3 23 0.2 32.3
14:55 1019 30.09 848 25.04 21.7 71.1 24 0.7 33.2
15:00 1019 30.09 848 25.04 21.5 70.7 23 -0.2 31.6
15:05 1019 30.09 848 25.04 22 71.5 24 0.6 33
15:10 1019 30.09 848 25.04 22.4 72.4 23 0.2 32.4
15:15 1019 30.09 848 25.04 21.8 71.2 24 0.6 33.1
15:20 1019 30.09 848 25.04 21.5 70.6 26 1.1 34
15:25 1019 30.09 848 25.04 20.7 69.3 26 0.7 33.3
15:30 1019 30.09 848 25.04 21 69.7 25 0.3 32.6
15:35 1019 30.09 848 25.04 20.9 69.7 24 -0.1 31.8
15:40 1019 30.09 848 25.04 21 69.8 25 0.2 32.4
15:45 1019 30.09 848 25.04 20.3 68.5 25 0 32
15:50 1019 30.09 848 25.04 20.3 68.6 25 0.1 32.1
15:55 1019 30.09 848 25.04 20.8 69.5 25 0.1 32.2
16:00 1019 30.09 848 25.04 20.7 69.2 25 0.3 32.5
16:05 1019 30.09 848 25.04 20.7 69.3 26 0.5 32.9
16:10 1019 30.09 848 25.04 20.8 69.4 26 0.5 32.9
16:15 1019 30.09 848 25.04 21 69.9 25 0.5 33
16:20 1019 30.09 848 25.04 20.9 69.5 26 0.7 33.2
16:25 1019 30.09 848 25.04 20.6 69.2 24 -0.4 31.2
16:30 1019 30.09 848 25.04 19.9 67.7 25 -0.5 31.2
16:35 1019 30.09 848 25.04 19.8 67.6 26 -0.4 31.3
16:40 1019 30.09 848 25.04 20.5 68.8 26 0.3 32.5
16:45 1019 30.09 848 25.04 20.8 69.4 26 0.9 33.6
16:50 1018 30.06 848 25.04 20.8 69.4 26 0.6 33.1
16:55 1018 30.06 848 25.04 20.4 68.6 26 0.2 32.3
17:00 1018 30.06 848 25.04 19.7 67.5 26 -0.3 31.5
17:05 1018 30.06 848 25.04 19.7 67.4 27 0.2 32.3
17:10 1018 30.06 848 25.04 19.8 67.6 26 0.2 32.3
17:15 1018 30.06 848 25.04 20 68 27 0.3 32.6
17:20 1018 30.06 848 25.04 20.4 68.7 26 0.3 32.6
17:25 1018 30.06 848 25.04 20.5 68.8 26 0.2 32.4
17:30 1018 30.06 848 25.04 21 69.8 24 -0.1 31.9
17:35 1018 30.06 848 25.04 21.3 70.3 23 -0.5 31.1
17:40 1018 30.06 848 25.04 21.5 70.8 24 0 32.1
17:45 1018 30.06 848 25.04 21.3 70.4 22 -1.1 30
17:50 1018 30.06 848 25.04 21.1 70 21 -1.8 28.7
17:55 1018 30.06 848 25.04 21.2 70.2 22 -1.3 29.7
18:00 1018 30.06 848 25.04 21.2 70.1 21 -1.8 28.8
18:05 1018 30.06 848 25.04 21 69.9 22 -1.3 29.7
18:10 1018 30.06 848 25.04 20.7 69.3 21 -2.2 28.1
18:15 1019 30.09 848 25.04 20.8 69.4 21 -1.9 28.6
18:20 1019 30.09 848 25.04 21 69.8 22 -1.7 29
18:25 1019 30.09 848 25.04 21.4 70.5 21 -1.5 29.2
18:30 1019 30.09 848 25.04 22.1 71.7 20 -1.7 29
18:35 1019 30.09 848 25.04 22.4 72.3 20 -1.4 29.4
18:40 1019 30.09 848 25.04 22.4 72.4 20 -1.4 29.5
18:45 1019 30.09 848 25.04 21.9 71.4 20 -1.6 29.1
18:50 1019 30.09 848 25.04 21.8 71.2 21 -1.4 29.5
18:55 1019 30.09 848 25.04 22.2 71.9 20 -1.9 28.5
19:00 1019 30.09 848 25.04 22.2 71.9 20 -1.7 28.9
19:05 1019 30.09 848 25.04 22.2 71.9 20 -1.8 28.7
19:10 1019 30.09 848 25.04 22.1 71.7 20 -1.9 28.6
19:15 1019 30.09 848 25.04 22.3 72.2 20 -1.4 29.4
19:20 1019 30.09 848 25.04 22.5 72.6 19 -1.9 28.5
19:25 1019 30.09 848 25.04 22.4 72.3 20 -1.7 28.9
19:30 1019 30.09 848 25.04 21.9 71.5 20 -1.8 28.8
19:35 1019 30.09 848 25.04 21.4 70.5 21 -1.5 29.2
19:40 1019 30.09 848 25.04 21.1 70.1 21 -1.7 28.9
19:45 1019 30.09 848 25.04 21.5 70.6 21 -1.7 29
19:50 1019 30.09 848 25.04 21.7 71.1 21 -1.6 29.2
19:55 1019 30.09 848 25.04 21.7 71.1 23 0.1 32.2
20:00 1019 30.09 848 25.04 20.8 69.4 26 0.8 33.5
20:05 1019 30.09 848 25.04 20.3 68.6 26 0.2 32.4
20:10 1019 30.09 848 25.04 20.1 68.2 25 -0.2 31.7
20:15 1019 30.09 848 25.04 19.9 67.8 26 -0 31.9
20:20 1019 30.09 848 25.04 19.8 67.7 26 -0.2 31.6
20:25 1019 30.09 848 25.04 19.8 67.6 26 -0.3 31.5
20:30 1019 30.09 848 25.04 19.7 67.5 25 -0.6 30.9
20:35 1019 30.09 848 25.04 19.7 67.5 25 -0.6 30.8
20:40 1019 30.09 848 25.04 19.5 67.2 25 -0.7 30.7
20:45 1019 30.09 848 25.04 19.4 66.9 25 -0.8 30.6
20:50 1019 30.09 848 25.04 19.2 66.6 29 0.8 33.5
20:55 1019 30.09 848 25.04 19 66.2 30 1 33.8
21:00 1019 30.09 848 25.04 18.9 66 30 1 33.8
21:05 1019 30.09 848 25.04 18.8 65.8 37 4 39.1
21:10 1019 30.09 848 25.04 18.1 64.7 41 5 40.9
21:15 1019 30.09 848 25.04 17.4 63.4 44 5.3 41.5
21:20 1019 30.09 848 25.04 17 62.6 44 4.9 40.7
21:25 1019 30.09 848 25.04 16.3 61.3 45 4.5 40.1
21:30 1019 30.09 848 25.04 15.9 60.6 49 5.2 41.3
21:35 1019 30.09 849 25.07 15.6 60.1 48 4.7 40.4
21:40 1019 30.09 849 25.07 15.2 59.4 50 4.8 40.7
21:45 1020 30.12 849 25.07 14.8 58.6 51 4.7 40.4
21:50 1020 30.12 849 25.07 14.3 57.7 54 5.2 41.3
21:55 1020 30.12 849 25.07 14.1 57.3 48 3.4 38.2
22:00 1020 30.12 849 25.07 14.2 57.6 47 3.2 37.7
22:05 1020 30.12 849 25.07 14.3 57.8 47 3.2 37.8
22:10 1020 30.12 849 25.07 14.1 57.4 48 3.3 38
22:15 1020 30.12 849 25.07 13.8 56.8 50 3.7 38.7
22:20 1020 30.12 849 25.07 13.5 56.4 49 3.2 37.8
22:25 1020 30.12 849 25.07 13.5 56.3 50 3.2 37.8
22:30 1020 30.12 849 25.07 13.6 56.5 52 3.9 39
22:35 1020 30.12 849 25.07 13.6 56.4 50 3.4 38
22:40 1020 30.12 849 25.07 13.1 55.6 51 3.3 38
22:45 1020 30.12 849 25.07 13 55.5 51 3.2 37.8
22:50 1020 30.12 849 25.07 13 55.3 55 4.2 39.5
22:55 1020 30.12 849 25.07 13 55.5 51 3.3 37.9
23:00 1020 30.12 849 25.07 12.8 55 53 3.4 38.1
23:05 1020 30.12 849 25.07 12.6 54.7 51 2.7 36.9
23:10 1020 30.12 849 25.07 12.9 55.3 50 2.7 36.8
23:15 1020 30.12 849 25.07 13.2 55.7 51 3.3 37.9
23:20 1020 30.12 850 25.1 13.2 55.8 47 2.2 35.9
23:25 1020 30.12 850 25.1 13.5 56.2 45 1.9 35.5
23:30 1020 30.12 850 25.1 13.8 56.8 44 1.8 35.2
23:35 1020 30.12 850 25.1 13.9 56.9 45 2.1 35.9
23:40 1020 30.12 850 25.1 13.9 56.9 44 1.8 35.3
23:45 1021 30.15 850 25.1 13.7 56.6 48 3.1 37.6
23:50 1021 30.15 850 25.1 13.5 56.3 48 2.7 36.8
23:55 1021 30.15 850 25.1 13.3 55.9 53 4 39.2
24:00 1021 30.15 850 25.1 12.6 54.6 53 3.4 38.1